Time;durP1;ratioP1;P1;durP2;ratioP2;P2;SDS_P1;SDS_P2;PMS_P1;PMS_P2;Temp;Humidity;BMP_temperature;BMP_pressure;BME280_temperature;BME280_humidity;BME280_pressure;Samples;Min_cycle;Max_cycle;Signal;HPM_P1;HPM_P2
2023/03/24 00:01:22;;;;;;;10.27;5.93;;;;;;;9.22;68.44;98190.03;5086066;28;20044;-38
2023/03/24 00:03:50;;;;;;;22.85;12.15;;;;;;;9.19;68.51;98190.22;5088400;28;20542;-37
2023/03/24 00:06:17;;;;;;;15.27;8.30;;;;;;;9.14;68.68;98184.44;5088392;28;20667;-37
2023/03/24 00:08:46;;;;;;;11.15;6.68;;;;;;;8.89;68.54;98143.41;5073349;28;20499;-37
2023/03/24 00:11:13;;;;;;;13.35;7.43;;;;;;;9.04;69.14;98175.47;5071290;28;20164;-37
2023/03/24 00:13:40;;;;;;;11.68;6.68;;;;;;;9.02;69.16;98179.03;5086109;28;20507;-37
2023/03/24 00:16:08;;;;;;;14.48;7.57;;;;;;;9.01;69.68;98170.44;5087622;28;20078;-39
2023/03/24 00:18:35;;;;;;;17.25;9.57;;;;;;;9.01;69.52;98167.84;5078855;28;20119;-38
2023/03/24 00:21:03;;;;;;;14.10;8.98;;;;;;;8.96;69.70;98164.66;5083714;28;20175;-38
2023/03/24 00:23:33;;;;;;;20.90;11.30;;;;;;;9.02;69.49;98172.09;5070920;28;20127;-37
2023/03/24 00:26:08;;;;;;;12.93;7.00;;;;;;;9.03;69.56;98160.81;5067824;28;20036;-38
2023/03/24 00:28:35;;;;;;;14.55;8.43;;;;;;;8.95;69.45;98139.63;5084480;28;20086;-37
2023/03/24 00:31:04;;;;;;;11.52;6.40;;;;;;;9.04;69.40;98146.13;5050870;28;20165;-38
2023/03/24 00:33:31;;;;;;;10.52;6.13;;;;;;;9.05;69.92;98137.44;5070664;28;20036;-38
2023/03/24 00:35:58;;;;;;;15.85;9.18;;;;;;;9.09;69.25;98147.56;5053973;28;20040;-38
2023/03/24 00:38:25;;;;;;;16.02;7.70;;;;;;;9.08;69.33;98138.09;5052622;28;20040;-38
2023/03/24 00:40:52;;;;;;;17.48;9.00;;;;;;;9.10;69.60;98122.47;5051292;28;20063;-37
2023/03/24 00:43:18;;;;;;;14.05;7.75;;;;;;;9.11;69.04;98118.94;5067586;28;20051;-38
2023/03/24 00:45:45;;;;;;;15.23;8.95;;;;;;;9.11;69.02;98111.16;5070004;28;20036;-38
2023/03/24 00:48:12;;;;;;;12.80;8.75;;;;;;;9.14;69.50;98123.97;5078140;28;20037;-37
2023/03/24 00:50:40;;;;;;;14.75;8.55;;;;;;;8.98;69.15;98098.03;5083276;28;20044;-36
2023/03/24 00:53:07;;;;;;;13.48;7.32;;;;;;;9.16;69.30;98143.69;5066023;28;20044;-36
2023/03/24 00:55:33;;;;;;;18.00;8.18;;;;;;;9.19;68.92;98151.31;5066662;28;20131;-36
2023/03/24 00:57:59;;;;;;;16.75;8.82;;;;;;;9.06;69.00;98121.78;5083694;28;20140;-39
2023/03/24 01:00:26;;;;;;;16.98;8.65;;;;;;;9.18;69.09;98130.66;5084026;28;20044;-36
2023/03/24 01:02:54;;;;;;;16.42;7.90;;;;;;;9.18;69.28;98135.84;5069201;28;20589;-37
2023/03/24 01:05:24;;;;;;;14.77;8.97;;;;;;;9.18;69.01;98126.31;5077877;28;20117;-38
2023/03/24 01:07:55;;;;;;;15.18;8.32;;;;;;;9.21;68.80;98141.69;5086671;28;20413;-37
2023/03/24 01:10:25;;;;;;;15.63;9.60;;;;;;;9.21;69.16;98122.72;5054130;28;20099;-38
2023/03/24 01:12:55;;;;;;;15.75;7.82;;;;;;;9.19;69.06;98125.41;5053519;28;20035;-39
2023/03/24 01:15:25;;;;;;;15.32;8.32;;;;;;;9.21;69.35;98118.34;5067974;28;20051;-38
2023/03/24 01:17:52;;;;;;;;;;;;;;;9.22;69.43;98120.03;5091205;28;20048;-38
2023/03/24 01:20:18;;;;;;;11.68;7.05;;;;;;;9.02;69.15;98096.94;5084793;28;19971;-37
2023/03/24 01:22:45;;;;;;;19.65;8.60;;;;;;;9.17;69.54;98121.19;5067526;28;20032;-37
2023/03/24 01:25:17;;;;;;;14.60;8.43;;;;;;;9.19;69.27;98119.38;5049874;28;20047;-37
2023/03/24 01:27:45;;;;;;;16.35;8.70;;;;;;;9.19;69.17;98106.41;5066173;28;20045;-38
2023/03/24 01:30:21;;;;;;;12.88;6.22;;;;;;;9.16;69.59;98099.63;5032718;28;20052;-39
2023/03/24 01:32:47;;;;;;;17.95;8.80;;;;;;;9.22;69.56;98101.03;5049415;28;20577;-37
2023/03/24 01:35:13;;;;;;;14.68;9.20;;;;;;;9.24;69.92;98107.00;5065991;28;20041;-37
2023/03/24 01:37:39;;;;;;;13.88;8.30;;;;;;;9.16;69.55;98080.66;5079897;28;20040;-37
2023/03/24 01:40:09;;;;;;;19.08;9.77;;;;;;;9.27;69.09;98089.50;5086205;28;20078;-36
2023/03/24 01:42:35;;;;;;;;;;;;;;;9.29;69.09;98095.47;5086529;28;20159;-38
2023/03/24 01:45:40;;;;;;;16.65;8.77;;;;;;;9.26;69.67;98087.03;5076019;28;20022;-37
2023/03/24 01:48:13;;;;;;;15.63;8.60;;;;;;;9.29;69.78;98085.09;5086296;28;20055;-36
2023/03/24 01:50:41;;;;;;;19.33;9.27;;;;;;;9.31;69.43;98077.22;5086166;28;20127;-38
2023/03/24 01:53:07;;;;;;;18.38;9.45;;;;;;;9.32;69.05;98084.06;5052966;28;20051;-37
2023/03/24 01:55:34;;;;;;;14.23;9.15;;;;;;;9.31;69.40;98083.25;5052761;28;20415;-36
2023/03/24 01:58:02;;;;;;;15.55;8.75;;;;;;;9.33;69.27;98080.56;5069455;28;20580;-38
2023/03/24 02:00:40;;;;;;;14.50;9.00;;;;;;;9.34;69.53;98082.22;5096548;28;20048;-36
2023/03/24 02:03:40;;;;;;;16.73;8.93;;;;;;;9.37;69.57;98081.25;5048738;28;20048;-36
2023/03/24 02:06:08;;;;;;;16.13;9.32;;;;;;;9.35;69.20;98071.78;5080764;28;20040;-38
2023/03/24 02:08:56;;;;;;;14.48;8.30;;;;;;;9.39;69.65;98067.25;5072836;28;20101;-36
2023/03/24 02:11:27;;;;;;;13.32;7.55;;;;;;;9.24;69.36;98039.59;5055141;28;20483;-38
2023/03/24 02:13:58;;;;;;;17.15;9.35;;;;;;;9.43;69.14;98060.97;5073116;28;20038;-37
2023/03/24 02:16:46;;;;;;;16.13;9.07;;;;;;;9.46;69.16;98066.00;5064481;28;20048;-37
2023/03/24 02:19:25;;;;;;;15.05;8.77;;;;;;;9.48;69.13;98056.38;5081952;28;20048;-36
2023/03/24 02:21:54;;;;;;;;;;;;;;;9.51;68.96;98050.19;5088998;28;20043;-37
2023/03/24 02:24:43;;;;;;;18.63;9.60;;;;;;;9.50;68.95;98056.28;5088887;28;20583;-37
2023/03/24 02:27:34;;;;;;;16.02;9.35;;;;;;;9.53;69.25;98048.31;5083204;28;20044;-36
2023/03/24 02:30:03;;;;;;;18.10;9.10;;;;;;;9.54;68.82;98040.47;5055052;28;20135;-37
2023/03/24 02:32:59;;;;;;;13.90;7.93;;;;;;;9.56;68.55;98046.41;5052404;28;20108;-37
2023/03/24 02:35:51;;;;;;;17.08;9.57;;;;;;;9.59;68.81;98043.63;5073078;28;20139;-37
2023/03/24 02:38:22;;;;;;;13.98;8.18;;;;;;;9.58;68.77;98041.94;5068691;28;20048;-36
2023/03/24 02:41:03;;;;;;;17.70;9.23;;;;;;;9.59;68.75;98038.44;5051861;28;20496;-37
2023/03/24 02:43:48;;;;;;;17.35;9.45;;;;;;;9.58;68.78;98028.97;5069843;28;20384;-37
2023/03/24 02:46:24;;;;;;;16.63;8.65;;;;;;;9.56;68.85;98033.44;5072909;28;20044;-37
2023/03/24 02:49:18;;;;;;;13.38;8.60;;;;;;;9.58;68.64;98041.94;5069923;28;20044;-37
2023/03/24 02:51:50;;;;;;;15.95;8.80;;;;;;;9.60;68.96;98024.56;5105385;28;20100;-38
2023/03/24 02:54:30;;;;;;;17.42;9.32;;;;;;;9.60;68.63;98029.75;5087915;28;20028;-36
2023/03/24 02:57:04;;;;;;;14.30;7.45;;;;;;;9.63;68.49;98032.16;5087519;28;20043;-36
2023/03/24 02:59:50;;;;;;;17.88;9.52;;;;;;;9.63;68.51;98032.16;5077673;28;20067;-37
2023/03/24 03:02:45;;;;;;;17.35;8.00;;;;;;;9.66;68.65;98018.19;5069579;28;20067;-37
2023/03/24 03:05:22;;;;;;;12.88;6.45;;;;;;;9.67;68.24;98025.88;5051515;28;20047;-37
2023/03/24 03:07:49;;;;;;;15.75;8.50;;;;;;;9.65;68.35;98016.50;5068019;28;20134;-37
2023/03/24 03:10:32;;;;;;;13.05;8.23;;;;;;;9.52;68.50;97982.66;5053109;28;20461;-37
2023/03/24 03:13:01;;;;;;;14.75;8.68;;;;;;;9.67;68.69;98001.69;5088357;28;20456;-36
2023/03/24 03:15:32;;;;;;;15.38;7.35;;;;;;;9.33;68.68;97954.31;5070931;28;20130;-37
2023/03/24 03:18:16;;;;;;;13.40;7.80;;;;;;;9.66;68.08;97997.44;5084811;28;20089;-37
2023/03/24 03:20:51;;;;;;;14.52;8.30;;;;;;;9.67;68.33;98001.69;5067816;28;20048;-38
2023/03/24 03:23:40;;;;;;;16.83;9.27;;;;;;;9.66;68.50;97995.66;5069222;28;20036;-37
2023/03/24 03:26:11;;;;;;;15.95;9.25;;;;;;;9.66;68.45;97987.88;5084280;28;20428;-38
2023/03/24 03:28:42;;;;;;;21.67;10.25;;;;;;;9.66;68.22;97985.28;5034157;28;20056;-39
2023/03/24 03:31:13;;;;;;;15.25;8.98;;;;;;;9.65;68.52;97985.38;5062427;28;20090;-37
2023/03/24 03:33:48;;;;;;;15.40;9.20;;;;;;;9.47;68.05;97945.78;5054345;28;20503;-38
2023/03/24 03:36:27;;;;;;;13.43;8.25;;;;;;;9.69;68.75;97998.06;5086780;28;20086;-37
2023/03/24 03:39:38;;;;;;;14.27;8.27;;;;;;;9.66;68.33;97987.03;5086896;28;20074;-37
2023/03/24 03:42:08;;;;;;;18.20;10.18;;;;;;;9.52;70.16;97985.25;5028426;28;20072;-36
2023/03/24 03:44:34;;;;;;;20.48;10.77;;;;;;;9.21;73.41;97998.28;4994106;28;20436;-37
2023/03/24 03:47:00;;;;;;;18.98;9.75;;;;;;;8.93;76.09;97994.63;5038796;28;20044;-37
2023/03/24 03:49:37;;;;;;;19.05;10.90;;;;;;;8.75;77.89;97992.16;5083585;28;20040;-36
2023/03/24 03:52:03;;;;;;;18.27;10.35;;;;;;;8.69;79.35;97992.53;5083831;28;20067;-39
2023/03/24 03:54:30;;;;;;;17.42;9.02;;;;;;;8.23;80.36;97950.88;5052294;28;20032;-38
2023/03/24 03:56:57;;;;;;;19.23;10.02;;;;;;;8.39;82.85;97993.22;5062911;28;20468;-38
2023/03/24 03:59:27;;;;;;;19.35;10.75;;;;;;;8.33;84.66;97983.16;5051101;28;20189;-38
2023/03/24 04:01:53;;;;;;;18.58;10.98;;;;;;;8.28;85.91;97992.91;5074295;28;20069;-37
2023/03/24 04:04:55;;;;;;;21.05;11.77;;;;;;;8.17;88.09;97994.38;5070333;28;20051;-39
2023/03/24 04:07:41;;;;;;;22.35;10.95;;;;;;;8.07;89.97;98012.97;5084061;28;20485;-37
2023/03/24 04:10:52;;;;;;;19.73;11.30;;;;;;;8.03;92.22;98000.25;5093193;28;20043;-37
2023/03/24 04:13:22;;;;;;;24.52;14.13;;;;;;;8.00;93.71;98003.03;5066922;28;20086;-38
2023/03/24 04:16:44;;;;;;;21.77;12.55;;;;;;;7.95;95.72;98000.66;5074287;28;20055;-36
2023/03/24 04:19:27;;;;;;;30.55;11.85;;;;;;;7.92;97.52;97999.97;5074463;28;20040;-37
2023/03/24 04:22:12;;;;;;;25.52;14.60;;;;;;;7.86;98.31;98000.28;5066894;28;20043;-39
2023/03/24 04:24:50;;;;;;;26.65;13.63;;;;;;;7.83;99.73;97987.50;5050437;28;20053;-37
2023/03/24 04:27:37;;;;;;;20.85;13.20;;;;;;;7.83;100.00;98000.44;5078280;28;20043;-37
2023/03/24 04:30:31;;;;;;;30.15;16.10;;;;;;;7.79;100.00;97988.56;5082618;28;20135;-35
2023/03/24 04:33:01;;;;;;;34.42;17.27;;;;;;;7.74;100.00;97986.22;5055686;28;20040;-37
2023/03/24 04:35:39;;;;;;;31.77;16.90;;;;;;;7.74;100.00;97993.16;5063333;28;20052;-38
2023/03/24 04:38:13;;;;;;;22.15;12.13;;;;;;;7.63;100.00;97978.16;5065050;28;20845;-37
2023/03/24 04:40:41;;;;;;;33.83;15.73;;;;;;;7.63;100.00;97986.75;5070782;28;20059;-41
2023/03/24 04:43:12;;;;;;;30.25;16.00;;;;;;;7.41;100.00;97944.78;5068356;28;20642;-36
2023/03/24 04:45:38;;;;;;;36.00;18.15;;;;;;;7.59;100.00;97985.22;5060474;28;20047;-42
2023/03/24 04:48:25;;;;;;;35.38;17.67;;;;;;;7.62;100.00;97992.84;5061454;28;20040;-39
2023/03/24 04:51:07;;;;;;;33.60;15.73;;;;;;;7.46;100.00;97967.81;5083684;28;20051;-38
2023/03/24 04:53:47;;;;;;;32.92;17.92;;;;;;;7.58;100.00;97980.97;5050861;28;20064;-40
2023/03/24 04:56:26;;;;;;;40.40;19.42;;;;;;;7.59;100.00;97980.03;5085860;28;20520;-38
2023/03/24 04:59:03;;;;;;;37.83;20.00;;;;;;;7.59;100.00;97990.38;5071403;28;20054;-38
2023/03/24 05:01:30;;;;;;;36.50;18.65;;;;;;;7.38;100.00;97944.91;5086463;28;20066;-36
2023/03/24 05:04:21;;;;;;;29.77;15.90;;;;;;;7.62;100.00;97976.47;5058980;28;20056;-38
2023/03/24 05:06:51;;;;;;;38.30;18.00;;;;;;;7.59;100.00;97981.78;5079643;28;20035;-39
2023/03/24 05:09:22;;;;;;;40.58;19.30;;;;;;;7.55;100.00;97988.88;5081717;28;20052;-38
2023/03/24 05:11:49;;;;;;;34.60;17.75;;;;;;;7.53;100.00;97987.28;5080553;28;20148;-44
2023/03/24 05:14:16;;;;;;;32.08;16.50;;;;;;;7.51;100.00;98002.88;5065420;28;20051;-37
2023/03/24 05:16:44;;;;;;;35.17;16.45;;;;;;;7.44;100.00;97998.06;5070335;28;20797;-38
2023/03/24 05:19:10;;;;;;;36.10;16.98;;;;;;;7.44;100.00;97982.53;5081235;28;20131;-37
2023/03/24 05:21:37;;;;;;;31.88;15.55;;;;;;;7.48;100.00;97990.09;5070664;28;20899;-37
2023/03/24 05:24:05;;;;;;;36.47;17.98;;;;;;;7.40;100.00;97974.09;5053481;28;20435;-37
2023/03/24 05:26:33;;;;;;;27.42;15.20;;;;;;;7.52;100.00;97993.38;5053585;28;20127;-37
2023/03/24 05:29:06;;;;;;;40.88;20.58;;;;;;;7.53;100.00;97997.63;5058223;28;20052;-38
2023/03/24 05:31:33;;;;;;;31.60;15.55;;;;;;;7.48;100.00;97991.84;5072146;28;20040;-39
2023/03/24 05:34:10;;;;;;;41.15;19.77;;;;;;;7.48;100.00;97992.69;5083450;28;20047;-38
2023/03/24 05:36:50;;;;;;;38.83;19.65;;;;;;;7.49;100.00;97989.16;5086560;28;20483;-37
2023/03/24 05:39:19;;;;;;;39.28;20.27;;;;;;;7.48;100.00;97997.84;5087477;28;20051;-37
2023/03/24 05:42:05;;;;;;;43.08;20.38;;;;;;;7.50;100.00;97997.75;5062845;28;20056;-38
2023/03/24 05:44:32;;;;;;;30.08;16.40;;;;;;;7.50;100.00;97995.19;5082734;28;20160;-37
2023/03/24 05:47:07;;;;;;;49.65;20.65;;;;;;;7.51;100.00;97991.69;5074111;28;20043;-37
2023/03/24 05:49:33;;;;;;;39.92;19.08;;;;;;;7.59;100.00;97989.53;5064139;28;20105;-37
2023/03/24 05:52:00;;;;;;;29.08;12.73;;;;;;;7.52;100.00;97989.03;5072396;28;20040;-37
2023/03/24 05:54:26;;;;;;;38.65;19.05;;;;;;;7.39;100.00;97963.84;5088953;28;20134;-36
2023/03/24 05:57:00;;;;;;;38.55;19.88;;;;;;;7.57;100.00;97989.66;5089511;28;20112;-36
2023/03/24 05:59:27;;;;;;;37.80;18.63;;;;;;;7.55;100.00;97985.44;5075262;28;20140;-37
2023/03/24 06:02:15;;;;;;;38.90;17.75;;;;;;;7.51;100.00;97992.53;5070466;28;20063;-38
2023/03/24 06:04:56;;;;;;;47.38;21.83;;;;;;;7.34;100.00;97958.06;5059656;28;20044;-38
2023/03/24 06:07:25;;;;;;;35.42;15.98;;;;;;;7.52;100.00;97988.19;5075044;28;20166;-37
2023/03/24 06:09:52;;;;;;;35.85;15.68;;;;;;;7.44;100.00;97983.38;5059642;28;20059;-37
2023/03/24 06:12:20;;;;;;;27.48;14.45;;;;;;;7.38;100.00;97990.63;5062944;28;20055;-37
2023/03/24 06:15:02;;;;;;;43.88;20.90;;;;;;;7.30;100.00;97970.31;5063396;28;20056;-37
2023/03/24 06:17:29;;;;;;;42.20;19.30;;;;;;;7.40;100.00;97996.53;5049806;28;20048;-38
2023/03/24 06:20:01;;;;;;;42.50;20.55;;;;;;;7.45;100.00;97992.81;5070340;28;20389;-38
2023/03/24 06:22:57;;;;;;;25.65;10.85;;;;;;;7.43;100.00;97989.47;5075421;28;20135;-38
2023/03/24 06:25:27;;;;;;;39.88;16.85;;;;;;;7.41;100.00;97990.47;5056088;28;20036;-38
2023/03/24 06:28:13;;;;;;;41.05;18.25;;;;;;;7.38;100.00;97983.69;5089717;28;20051;-37
2023/03/24 06:30:45;;;;;;;48.58;22.33;;;;;;;7.42;100.00;97987.81;5071122;28;20074;-38
2023/03/24 06:33:16;;;;;;;36.90;18.08;;;;;;;7.45;100.00;97995.41;5089154;28;20674;-37
2023/03/24 06:35:43;;;;;;;46.08;22.73;;;;;;;7.48;100.00;97981.50;5071837;28;20512;-37
2023/03/24 06:38:14;;;;;;;27.13;12.65;;;;;;;7.48;100.00;97990.09;5070181;28;20055;-39
2023/03/24 06:40:40;;;;;;;39.90;19.55;;;;;;;7.45;100.00;97984.22;5068415;28;20063;-37
2023/03/24 06:43:07;;;;;;;39.53;17.48;;;;;;;7.46;100.00;97986.75;5068459;28;20631;-39
2023/03/24 06:45:38;;;;;;;33.30;14.88;;;;;;;7.31;100.00;97953.03;5087432;28;20040;-37
2023/03/24 06:48:05;;;;;;;37.10;18.97;;;;;;;7.47;100.00;97985.84;5088348;28;20423;-37
2023/03/24 06:50:33;;;;;;;34.75;17.95;;;;;;;7.55;100.00;97975.94;5089958;28;20285;-36
2023/03/24 06:53:04;;;;;;;35.05;18.23;;;;;;;7.55;100.00;97982.84;5068686;28;20055;-37
2023/03/24 06:55:32;;;;;;;31.20;14.18;;;;;;;7.52;100.00;97986.44;5068254;28;20050;-40
2023/03/24 06:57:58;;;;;;;38.63;18.38;;;;;;;7.53;100.00;97977.78;5051696;28;20444;-38
2023/03/24 07:00:28;;;;;;;26.92;14.95;;;;;;;7.49;100.00;97967.63;5069449;28;20039;-37
2023/03/24 07:03:32;;;;;;;35.75;18.55;;;;;;;7.55;100.00;97980.28;5067048;28;20439;-38
2023/03/24 07:06:28;;;;;;;31.55;15.18;;;;;;;7.52;100.00;97980.44;5013498;28;20600;-38
2023/03/24 07:08:58;;;;;;;30.48;13.63;;;;;;;7.57;100.00;97991.38;5051859;28;20052;-37
2023/03/24 07:11:27;;;;;;;36.55;17.48;;;;;;;7.54;100.00;97988.94;5068062;28;20040;-38
2023/03/24 07:13:56;;;;;;;38.10;18.48;;;;;;;7.39;100.00;97956.09;5084914;28;20067;-37
2023/03/24 07:16:25;;;;;;;43.30;18.50;;;;;;;7.47;100.00;97959.16;5084849;28;20045;-39
2023/03/24 07:19:00;;;;;;;28.80;15.15;;;;;;;7.59;100.00;97980.03;5063887;28;20433;-38
2023/03/24 07:21:28;;;;;;;28.02;14.45;;;;;;;7.61;100.00;97985.97;5050612;28;20405;-38
2023/03/24 07:23:55;;;;;;;30.38;16.42;;;;;;;7.70;100.00;97987.25;5067265;28;20056;-38
2023/03/24 07:26:26;;;;;;;16.95;9.20;;;;;;;7.66;100.00;97986.59;5057659;28;20121;-38
2023/03/24 07:29:07;;;;;;;32.28;15.52;;;;;;;7.33;100.00;97933.94;5084447;28;20143;-38
2023/03/24 07:31:47;;;;;;;29.48;15.32;;;;;;;7.66;100.00;97994.34;5069187;28;20135;-38
2023/03/24 07:34:14;;;;;;;26.63;13.47;;;;;;;7.73;100.00;98005.25;5084194;28;20037;-37
2023/03/24 07:36:41;;;;;;;20.42;10.35;;;;;;;7.69;100.00;97998.56;5050785;28;20051;-38
2023/03/24 07:39:12;;;;;;;28.42;14.32;;;;;;;7.69;100.00;97995.97;5051582;28;20044;-37
2023/03/24 07:41:38;;;;;;;24.92;12.55;;;;;;;7.72;100.00;98000.97;5049968;28;20143;-38
2023/03/24 07:44:14;;;;;;;22.58;12.57;;;;;;;7.69;100.00;97995.97;5074543;28;20130;-37
2023/03/24 07:46:47;;;;;;;24.17;12.20;;;;;;;7.66;100.00;97999.53;5054978;28;20071;-37
2023/03/24 07:49:14;;;;;;;22.77;12.20;;;;;;;7.66;100.00;98002.09;5061878;28;20439;-36
2023/03/24 07:51:40;;;;;;;28.25;13.38;;;;;;;7.66;100.00;98004.69;5050703;28;20177;-37
2023/03/24 07:54:21;;;;;;;22.95;11.82;;;;;;;7.80;100.00;97998.81;5052828;28;20048;-37
2023/03/24 07:56:48;;;;;;;21.23;11.35;;;;;;;7.75;100.00;98012.91;5067214;28;20052;-37
2023/03/24 07:59:14;;;;;;;25.98;13.38;;;;;;;7.72;100.00;98010.47;5033930;28;20135;-37
2023/03/24 08:01:50;;;;;;;25.25;13.68;;;;;;;7.62;100.00;97971.31;5067139;28;20040;-37
2023/03/24 08:04:19;;;;;;;24.70;13.00;;;;;;;7.88;100.00;98016.56;5063111;28;20044;-37
2023/03/24 08:06:48;;;;;;;25.80;12.98;;;;;;;7.89;100.00;98016.50;5084934;28;20032;-37
2023/03/24 08:09:15;;;;;;;21.58;10.52;;;;;;;7.84;100.00;98023.66;5086986;28;20062;-36
2023/03/24 08:11:41;;;;;;;28.95;13.10;;;;;;;7.65;100.00;97994.41;5088395;28;20420;-37
2023/03/24 08:14:07;;;;;;;20.95;11.48;;;;;;;7.74;100.00;98006.91;5088377;28;20043;-38
2023/03/24 08:16:33;;;;;;;25.08;10.98;;;;;;;7.84;100.00;98017.63;5070136;28;20032;-37
2023/03/24 08:18:59;;;;;;;27.88;12.05;;;;;;;7.78;100.00;98016.19;5077224;28;20055;-38
2023/03/24 08:21:25;;;;;;;23.25;10.73;;;;;;;7.77;100.00;98017.09;5069439;28;20108;-38
2023/03/24 08:23:51;;;;;;;21.23;10.85;;;;;;;7.79;100.00;98019.63;5087901;28;20043;-36
2023/03/24 08:26:17;;;;;;;18.52;10.10;;;;;;;7.83;100.00;98018.53;5069786;28;20515;-38
2023/03/24 08:28:43;;;;;;;25.02;12.93;;;;;;;7.85;100.00;98014.16;5053198;28;20546;-38
2023/03/24 08:31:10;;;;;;;16.90;9.68;;;;;;;7.83;100.00;98021.13;5086841;28;20516;-39
2023/03/24 08:33:36;;;;;;;16.17;8.32;;;;;;;7.93;100.00;98019.75;5053594;28;20047;-39
2023/03/24 08:36:03;;;;;;;19.10;10.48;;;;;;;8.00;100.00;98018.53;5077590;28;20036;-39
2023/03/24 08:38:32;;;;;;;19.63;9.63;;;;;;;8.00;100.00;98023.72;5068252;28;20508;-37
2023/03/24 08:41:00;;;;;;;18.30;9.68;;;;;;;7.87;100.00;97995.03;5066502;28;20056;-37
2023/03/24 08:43:28;;;;;;;19.65;11.50;;;;;;;7.96;100.00;98022.19;5050941;28;20550;-37
2023/03/24 08:45:58;;;;;;;20.23;11.25;;;;;;;8.05;100.00;98029.50;5088073;28;20043;-37
2023/03/24 08:48:24;;;;;;;19.52;10.60;;;;;;;8.12;100.00;98023.06;5087222;28;20055;-37
2023/03/24 08:50:51;;;;;;;19.13;9.98;;;;;;;7.99;100.00;97994.41;5072061;28;20033;-38
2023/03/24 08:53:17;;;;;;;21.23;10.35;;;;;;;8.12;100.00;98033.44;5068748;28;20040;-36
2023/03/24 08:55:44;;;;;;;23.23;10.73;;;;;;;8.11;100.00;98026.59;5071863;28;20056;-37
2023/03/24 08:58:18;;;;;;;15.68;8.63;;;;;;;8.19;100.00;98031.38;5070618;28;20056;-38
2023/03/24 09:00:45;;;;;;;19.65;10.70;;;;;;;8.18;100.00;98034.88;5087377;28;20063;-38
2023/03/24 09:03:17;;;;;;;14.02;7.90;;;;;;;8.15;100.00;98029.88;5070541;28;20051;-37
2023/03/24 09:05:44;;;;;;;15.05;8.88;;;;;;;8.04;100.00;98007.97;5069846;28;20040;-36
2023/03/24 09:08:11;;;;;;;16.55;9.27;;;;;;;8.15;100.00;98029.88;5070505;28;20040;-37
2023/03/24 09:10:38;;;;;;;23.52;10.52;;;;;;;8.25;100.00;98034.50;5053607;28;20504;-36
2023/03/24 09:13:04;;;;;;;15.50;9.15;;;;;;;8.22;100.00;98024.28;5072010;28;20048;-37
2023/03/24 09:15:30;;;;;;;13.07;7.18;;;;;;;8.03;100.00;98016.63;5071345;28;20063;-36
2023/03/24 09:17:56;;;;;;;17.88;9.48;;;;;;;8.05;100.00;98024.31;5064826;28;20047;-37
2023/03/24 09:20:22;;;;;;;16.92;8.93;;;;;;;8.19;100.00;98041.72;5071385;28;20040;-37
2023/03/24 09:22:48;;;;;;;12.38;7.05;;;;;;;8.19;100.00;98050.34;5071315;28;20060;-38
2023/03/24 09:25:17;;;;;;;13.45;8.10;;;;;;;8.18;100.00;98061.59;5086699;28;20036;-37
2023/03/24 09:27:43;;;;;;;13.77;7.88;;;;;;;8.16;100.00;98050.50;5069956;28;20111;-38
2023/03/24 09:30:10;;;;;;;16.75;8.20;;;;;;;8.28;100.00;98054.19;5070976;28;20186;-37
2023/03/24 09:32:36;;;;;;;14.48;7.80;;;;;;;8.10;100.00;98024.94;5069431;28;20047;-37
2023/03/24 09:35:03;;;;;;;16.70;9.30;;;;;;;8.21;100.00;98040.75;5073040;28;20032;-38
2023/03/24 09:37:32;;;;;;;15.98;8.85;;;;;;;8.37;100.00;98059.75;5091333;28;20212;-38
2023/03/24 09:40:00;;;;;;;9.15;5.82;;;;;;;8.41;100.00;98063.06;5090048;28;20036;-38
2023/03/24 09:42:30;;;;;;;15.85;8.10;;;;;;;8.40;100.00;98061.38;5091068;28;20056;-36
2023/03/24 09:44:58;;;;;;;14.35;7.93;;;;;;;8.42;100.00;98069.91;5089916;28;20419;-38
2023/03/24 09:47:30;;;;;;;10.85;7.57;;;;;;;8.44;100.00;98070.66;5081392;28;20042;-38
2023/03/24 09:50:01;;;;;;;13.43;7.93;;;;;;;8.27;100.00;98047.38;5069649;28;20127;-37
2023/03/24 09:52:33;;;;;;;15.23;8.40;;;;;;;8.41;100.00;98071.66;5052882;28;20068;-37
2023/03/24 09:55:02;;;;;;;14.63;7.65;;;;;;;8.48;100.00;98074.75;5086379;28;20094;-38
2023/03/24 09:57:38;;;;;;;16.25;8.07;;;;;;;8.48;100.00;98079.94;5070826;28;20036;-37
2023/03/24 10:00:28;;;;;;;15.75;8.10;;;;;;;8.39;100.00;98081.25;5069861;28;20075;-37
2023/03/24 10:03:00;;;;;;;15.60;7.65;;;;;;;8.39;100.00;98086.44;5086315;28;20124;-37
2023/03/24 10:05:33;;;;;;;10.10;6.30;;;;;;;8.39;100.00;98083.00;5073569;28;20048;-37
2023/03/24 10:08:10;;;;;;;14.63;8.50;;;;;;;8.29;100.00;98080.00;5090819;28;20045;-38
2023/03/24 10:10:48;;;;;;;14.70;7.05;;;;;;;8.29;100.00;98077.44;5089431;28;20092;-38
2023/03/24 10:13:20;;;;;;;12.52;7.38;;;;;;;8.30;100.00;98084.31;5089111;28;20040;-38
2023/03/24 10:15:48;;;;;;;14.20;6.90;;;;;;;8.30;100.00;98083.47;5083739;28;20040;-38
2023/03/24 10:18:26;;;;;;;13.27;7.45;;;;;;;8.37;100.00;98093.44;5048171;28;20037;-42
2023/03/24 10:21:13;;;;;;;10.68;6.70;;;;;;;8.42;100.00;98088.03;5085712;28;20040;-37
2023/03/24 10:24:04;;;;;;;11.25;6.78;;;;;;;8.47;100.00;98081.72;5070240;28;20036;-37
2023/03/24 10:26:51;;;;;;;9.18;6.13;;;;;;;8.47;100.00;98091.22;5068689;28;20047;-39
2023/03/24 10:29:32;;;;;;;8.18;5.20;;;;;;;8.42;100.00;98075.94;5068501;28;20184;-38
2023/03/24 10:32:00;;;;;;;13.27;7.03;;;;;;;8.62;100.00;98093.03;5084777;28;20040;-38
2023/03/24 10:34:29;;;;;;;12.05;6.57;;;;;;;8.77;100.00;98081.84;5090338;28;20130;-38
2023/03/24 10:37:01;;;;;;;11.27;6.15;;;;;;;8.99;100.00;98081.56;5088624;28;20046;-39
2023/03/24 10:39:29;;;;;;;8.52;6.18;;;;;;;9.02;100.00;98068.44;5090170;28;20511;-38
2023/03/24 10:41:55;;;;;;;10.93;6.10;;;;;;;9.33;100.00;98091.78;5088179;28;20082;-37
2023/03/24 10:44:22;;;;;;;10.05;5.80;;;;;;;9.58;100.00;98082.63;5097127;28;20050;-38
2023/03/24 10:46:53;;;;;;;9.23;5.78;;;;;;;9.63;100.00;98094.41;5051843;28;20459;-37
2023/03/24 10:49:20;;;;;;;8.82;5.47;;;;;;;9.39;100.00;98103.56;5069935;28;20032;-37
2023/03/24 10:52:02;;;;;;;7.78;5.10;;;;;;;9.13;100.00;98070.44;5068011;28;20471;-38
2023/03/24 10:54:29;;;;;;;8.25;4.53;;;;;;;9.17;100.00;98077.13;5069737;28;20157;-40
2023/03/24 10:57:02;;;;;;;5.32;3.25;;;;;;;9.30;100.00;98111.84;5069634;28;20040;-38
2023/03/24 10:59:39;;;;;;;6.70;4.53;;;;;;;9.23;100.00;98100.13;5067861;28;20177;-38
2023/03/24 11:02:08;;;;;;;7.05;4.35;;;;;;;9.22;100.00;98112.25;5068390;28;20058;-39
2023/03/24 11:04:38;;;;;;;6.57;4.45;;;;;;;9.20;100.00;98113.28;5069710;28;20169;-39
2023/03/24 11:07:19;;;;;;;6.80;4.68;;;;;;;9.30;100.00;98106.66;5087213;28;20059;-48
2023/03/24 11:09:57;;;;;;;13.00;4.35;;;;;;;9.34;100.00;98113.34;5088157;28;20097;-37
2023/03/24 11:12:31;;;;;;;7.57;5.25;;;;;;;9.41;100.00;98109.53;5089396;28;20044;-38
2023/03/24 11:15:18;;;;;;;6.40;4.25;;;;;;;9.82;100.00;98114.16;5070319;28;20686;-38
2023/03/24 11:17:46;;;;;;;5.78;4.50;;;;;;;10.84;100.00;98104.66;5073388;28;20085;-38
2023/03/24 11:20:20;;;;;;;5.70;3.83;;;;;;;11.60;100.00;98083.47;5067888;28;20032;-40
2023/03/24 11:23:15;;;;;;;7.15;4.40;;;;;;;12.44;100.00;98103.09;5069083;28;20427;-38
2023/03/24 11:25:44;;;;;;;5.22;3.90;;;;;;;12.39;97.21;98104.31;5064070;28;20075;-41
2023/03/24 11:28:16;;;;;;;6.93;4.28;;;;;;;11.99;97.88;98108.72;5067279;28;20094;-41
2023/03/24 11:30:47;;;;;;;8.48;3.88;;;;;;;11.72;97.62;98080.88;5066918;28;20047;-38
2023/03/24 11:33:32;;;;;;;5.40;3.42;;;;;;;11.80;97.57;98085.66;5067731;28;20170;-38
2023/03/24 11:36:00;;;;;;;8.50;4.00;;;;;;;12.26;94.92;98106.91;5067093;28;20043;-39
2023/03/24 11:38:32;;;;;;;6.10;3.83;;;;;;;12.49;90.51;98111.44;5084408;28;20040;-41
2023/03/24 11:41:08;;;;;;;6.60;3.50;;;;;;;12.29;89.17;98111.94;5050210;28;20044;-38
2023/03/24 11:43:35;;;;;;;6.60;3.70;;;;;;;11.91;89.35;98103.19;5069108;28;20040;-37
2023/03/24 11:46:12;;;;;;;6.10;3.90;;;;;;;11.94;89.34;98127.25;5088878;28;20046;-37
2023/03/24 11:48:49;;;;;;;10.63;4.00;;;;;;;11.71;90.05;98109.63;5088892;28;20040;-38
2023/03/24 11:51:41;;;;;;;7.25;4.40;;;;;;;11.64;90.18;98126.56;5087223;28;20036;-39
2023/03/24 11:54:15;;;;;;;7.03;4.07;;;;;;;11.39;91.82;98111.69;5088648;28;20208;-38